Terminal Aerodrome Forecast
Issued by NWS Bismarck, ND

Home | Current Version | Previous Version | Graphics & Text | Print | Product List | Glossary Off
Versions: 1 2 3 4 5 6 7 8 9 10 11 12 13 14 15 16 17 18 19 20 21

000
FTUS43 KBIS 280955 AAB
TAFISN
TAF AMD
KISN 280955Z 2810/2906 VRB04KT P6SM OVC030
      TEMPO 2810/2812 OVC017
     FM281800 33014KT P6SM BKN050
     FM282200 35015G20KT P6SM VCSH BKN050=

USA.gov is the U.S. government's official web portal to all federal, state and local government web resources and services.